createdAt,value
2023-08-10T12:57:25.536Z,24.82
2023-08-10T12:59:52.988Z,24.76
2023-08-10T13:02:31.710Z,24.66
2023-08-10T13:05:01.210Z,24.52
2023-08-10T13:07:28.756Z,24.42
2023-08-10T13:09:56.967Z,24.38
2023-08-10T13:12:24.276Z,24.39
2023-08-10T13:14:51.570Z,24.42
2023-08-10T13:17:18.890Z,24.46
2023-08-10T13:19:46.297Z,24.49
2023-08-10T13:22:13.750Z,24.51
2023-08-10T13:24:41.427Z,24.55
2023-08-10T13:27:08.826Z,24.63
2023-08-10T13:29:36.202Z,24.65
2023-08-10T13:32:04.755Z,24.64
2023-08-10T13:34:32.379Z,24.61
2023-08-10T13:36:59.636Z,24.59
2023-08-10T13:39:26.907Z,24.59
2023-08-10T13:41:54.352Z,24.62
2023-08-10T13:44:21.638Z,24.60
2023-08-10T13:46:49.034Z,24.53
2023-08-10T13:49:16.913Z,24.45
2023-08-10T13:51:45.841Z,24.34
2023-08-10T13:54:13.197Z,24.28
2023-08-10T13:56:59.717Z,24.27
2023-08-10T13:59:28.139Z,24.28
2023-08-10T14:01:55.596Z,24.25
2023-08-10T14:04:23.092Z,24.20
2023-08-10T14:06:50.769Z,24.20
2023-08-10T14:09:18.333Z,24.22
2023-08-10T14:11:45.659Z,24.26
2023-08-10T14:14:13.852Z,24.28
2023-08-10T14:16:41.251Z,24.26
2023-08-10T14:19:08.584Z,24.23
2023-08-10T14:21:35.822Z,24.18
2023-08-10T14:24:03.334Z,24.15
2023-08-10T14:26:30.788Z,24.11
2023-08-10T14:28:58.078Z,24.06
2023-08-10T14:31:25.495Z,24.03
2023-08-10T14:33:53.135Z,24.00
2023-08-10T14:36:20.825Z,23.97
2023-08-10T14:38:48.294Z,23.97
2023-08-10T14:41:16.028Z,23.97
2023-08-10T14:43:43.380Z,23.95
2023-08-10T14:46:11.686Z,23.89
2023-08-10T14:48:39.262Z,23.88
2023-08-10T14:51:06.603Z,23.86
2023-08-10T14:53:33.951Z,23.83
2023-08-10T14:56:01.256Z,23.78
2023-08-10T14:58:29.011Z,23.77
2023-08-10T15:00:56.498Z,23.75
2023-08-10T15:03:25.134Z,23.74
2023-08-10T15:05:52.472Z,23.74
2023-08-10T15:08:20.113Z,23.74
2023-08-10T15:10:47.528Z,23.76
2023-08-10T15:13:14.843Z,23.77
2023-08-10T15:15:42.416Z,23.76
2023-08-10T15:18:09.741Z,23.75
2023-08-10T15:20:37.146Z,23.75
2023-08-10T15:23:15.889Z,23.73
2023-08-10T15:25:53.608Z,23.71
2023-08-10T15:28:21.068Z,23.69
2023-08-10T15:30:49.716Z,23.67
2023-08-10T15:33:17.041Z,23.65
2023-08-10T15:35:45.871Z,23.64
2023-08-10T15:38:13.319Z,23.63
2023-08-10T15:40:40.912Z,23.62
2023-08-10T15:43:08.279Z,23.58
2023-08-10T15:45:36.180Z,23.54
2023-08-10T15:48:03.734Z,23.49
2023-08-10T15:50:31.136Z,23.46
2023-08-10T15:52:58.434Z,23.44
2023-08-10T15:55:25.936Z,23.41
2023-08-10T15:57:53.310Z,23.38
2023-08-10T16:00:20.838Z,23.35
2023-08-10T16:02:48.355Z,23.34
2023-08-10T16:05:15.745Z,23.33
2023-08-10T16:07:43.481Z,23.31
2023-08-10T16:10:11.614Z,23.28
2023-08-10T16:12:39.352Z,23.23
2023-08-10T16:15:07.182Z,23.20
2023-08-10T16:17:35.256Z,23.17
2023-08-10T16:20:04.369Z,23.14
2023-08-10T16:22:31.771Z,23.09
2023-08-10T16:24:59.533Z,23.02
2023-08-10T16:27:26.893Z,22.97
2023-08-10T16:29:54.208Z,22.93
2023-08-10T16:32:21.531Z,22.88
2023-08-10T16:34:48.869Z,22.81
2023-08-10T16:37:16.290Z,22.75
2023-08-10T16:39:43.659Z,22.72
2023-08-10T16:42:10.983Z,22.67
2023-08-10T16:44:38.517Z,22.61
2023-08-10T16:47:06.587Z,22.54
2023-08-10T16:49:33.868Z,22.46
2023-08-10T16:52:01.353Z,22.39
2023-08-10T16:54:28.739Z,22.35
2023-08-10T16:56:56.684Z,22.31
2023-08-10T16:59:24.200Z,22.27
2023-08-10T17:01:52.791Z,22.23
2023-08-10T17:04:21.750Z,22.20
2023-08-10T17:06:48.989Z,22.15
2023-08-10T17:09:19.094Z,22.12
2023-08-10T17:11:46.546Z,22.08
2023-08-10T17:14:13.901Z,22.03
2023-08-10T17:16:41.429Z,21.98
2023-08-10T17:19:08.796Z,21.93
2023-08-10T17:21:36.753Z,21.89
2023-08-10T17:24:04.551Z,21.84
2023-08-10T17:26:31.965Z,21.79
2023-08-10T17:29:09.964Z,21.76
2023-08-10T17:31:41.986Z,21.73
2023-08-10T17:34:09.263Z,21.69
2023-08-10T17:36:36.558Z,21.67
2023-08-10T17:39:04.310Z,21.65
2023-08-10T17:41:31.733Z,21.62
2023-08-10T17:43:59.214Z,21.59
2023-08-10T17:46:27.600Z,21.57
2023-08-10T17:48:54.998Z,21.54
2023-08-10T17:51:22.282Z,21.50
2023-08-10T17:53:49.689Z,21.48
2023-08-10T17:56:16.932Z,21.46
2023-08-10T17:58:44.196Z,21.44
2023-08-10T18:01:11.693Z,21.42
2023-08-10T18:03:39.039Z,21.39
2023-08-10T18:06:06.339Z,21.36
2023-08-10T18:08:33.734Z,21.31
2023-08-10T18:11:01.203Z,21.27
2023-08-10T18:13:28.514Z,21.24
2023-08-10T18:15:55.932Z,21.21
2023-08-10T18:18:23.191Z,21.16
2023-08-10T18:20:50.625Z,21.11
2023-08-10T18:23:19.828Z,21.06
2023-08-10T18:25:47.088Z,21.02
2023-08-10T18:28:14.377Z,20.99
2023-08-10T18:30:41.802Z,20.94
2023-08-10T18:33:09.588Z,20.88
2023-08-10T18:35:37.557Z,20.82
2023-08-10T18:38:05.091Z,20.76
2023-08-10T18:40:39.818Z,20.72
2023-08-10T18:43:07.551Z,20.67
2023-08-10T18:45:35.618Z,20.59
2023-08-10T18:48:03.632Z,20.52
2023-08-10T18:50:31.151Z,20.47
2023-08-10T18:52:58.534Z,20.42
2023-08-10T18:55:25.883Z,20.37
2023-08-10T18:57:53.216Z,20.31
2023-08-10T19:00:20.596Z,20.27
2023-08-10T19:02:48.201Z,20.24
2023-08-10T19:05:15.591Z,20.21
2023-08-10T19:07:47.618Z,20.16
2023-08-10T19:10:15.285Z,20.10
2023-08-10T19:12:42.662Z,20.07
2023-08-10T19:15:10.553Z,20.06
2023-08-10T19:17:39.595Z,20.04
2023-08-10T19:20:08.626Z,20.00
2023-08-10T19:22:36.029Z,19.95
2023-08-10T19:25:05.073Z,19.93
2023-08-10T19:27:32.896Z,19.91
2023-08-10T19:30:04.108Z,19.88
2023-08-10T19:32:31.519Z,19.85
2023-08-10T19:34:58.839Z,19.82
2023-08-10T19:37:26.174Z,19.79
2023-08-10T19:39:53.534Z,19.75
2023-08-10T19:42:20.838Z,19.70
2023-08-10T19:44:48.101Z,19.65
2023-08-10T19:47:20.933Z,19.61
2023-08-10T19:49:49.534Z,19.59
2023-08-10T19:52:16.934Z,19.58
2023-08-10T19:54:44.348Z,19.56
2023-08-10T19:57:11.789Z,19.54
2023-08-10T19:59:39.044Z,19.52
2023-08-10T20:02:06.585Z,19.50
2023-08-10T20:04:34.492Z,19.50
2023-08-10T20:07:01.819Z,19.48
2023-08-10T20:09:29.319Z,19.45
2023-08-10T20:11:56.614Z,19.41
2023-08-10T20:14:24.019Z,19.39
2023-08-10T20:16:51.345Z,19.38
2023-08-10T20:19:18.828Z,19.35
2023-08-10T20:21:46.740Z,19.31
2023-08-10T20:24:15.430Z,19.28
2023-08-10T20:26:44.138Z,19.23
2023-08-10T20:29:11.595Z,19.20
2023-08-10T20:31:38.911Z,19.17
2023-08-10T20:34:06.258Z,19.15
2023-08-10T20:36:33.566Z,19.12
2023-08-10T20:39:00.958Z,19.10
2023-08-10T20:41:28.839Z,19.08
2023-08-10T20:43:56.134Z,19.05
2023-08-10T20:46:25.047Z,19.02
2023-08-10T20:48:53.458Z,19.01
2023-08-10T20:51:22.157Z,18.98
2023-08-10T20:53:51.819Z,18.95
2023-08-10T20:56:19.273Z,18.92
2023-08-10T20:58:46.818Z,18.88
2023-08-10T21:01:14.812Z,18.83
2023-08-10T21:03:44.174Z,18.80
2023-08-10T21:06:12.877Z,18.77
2023-08-10T21:08:41.452Z,18.75
2023-08-10T21:11:09.457Z,18.73
2023-08-10T21:13:37.053Z,18.70
2023-08-10T21:16:04.564Z,18.66
2023-08-10T21:18:31.917Z,18.64
2023-08-10T21:20:59.346Z,18.62
2023-08-10T21:23:27.756Z,18.62
2023-08-10T21:25:55.232Z,18.60
2023-08-10T21:28:22.635Z,18.59
2023-08-10T21:30:49.982Z,18.57
2023-08-10T21:33:17.541Z,18.56
2023-08-10T21:35:44.986Z,18.55
2023-08-10T21:38:12.390Z,18.55
2023-08-10T21:40:39.888Z,18.55
2023-08-10T21:43:09.060Z,18.56
2023-08-10T21:45:36.990Z,18.56
2023-08-10T21:48:04.667Z,18.58
2023-08-10T21:50:31.985Z,18.59
2023-08-10T21:52:59.336Z,18.59
2023-08-10T21:55:26.767Z,18.59
2023-08-10T21:57:54.109Z,18.58
2023-08-10T22:00:23.146Z,18.56
2023-08-10T22:02:51.137Z,18.53
2023-08-10T22:05:18.704Z,18.50
2023-08-10T22:07:46.443Z,18.49
2023-08-10T22:10:13.857Z,18.48
2023-08-10T22:12:41.164Z,18.47
2023-08-10T22:15:11.443Z,18.45
2023-08-10T22:17:38.886Z,18.43
2023-08-10T22:20:16.464Z,18.42
2023-08-10T22:22:57.829Z,18.42
2023-08-10T22:25:30.542Z,18.41
2023-08-10T22:28:00.555Z,18.39
2023-08-10T22:30:28.046Z,18.38
2023-08-10T22:32:55.374Z,18.37
2023-08-10T22:35:23.003Z,18.35
2023-08-10T22:37:50.294Z,18.33
2023-08-10T22:40:17.799Z,18.34
2023-08-10T22:42:45.265Z,18.34
2023-08-10T22:45:12.577Z,18.34
2023-08-10T22:47:40.100Z,18.32
2023-08-10T22:50:07.988Z,18.30
2023-08-10T22:52:35.326Z,18.29
2023-08-10T22:55:02.718Z,18.28
2023-08-10T22:57:30.183Z,18.26
2023-08-10T22:59:57.491Z,18.24
2023-08-10T23:02:24.790Z,18.22
2023-08-10T23:04:52.139Z,18.20
2023-08-10T23:07:19.512Z,18.19
2023-08-10T23:09:46.801Z,18.17
2023-08-10T23:12:14.198Z,18.17
2023-08-10T23:14:41.480Z,18.16
2023-08-10T23:17:08.836Z,18.16
2023-08-10T23:19:36.212Z,18.15
2023-08-10T23:22:03.602Z,18.13
2023-08-10T23:24:30.903Z,18.13
2023-08-10T23:26:58.251Z,18.12
2023-08-10T23:29:26.184Z,18.11
2023-08-10T23:31:55.661Z,18.12
2023-08-10T23:34:23.109Z,18.12
2023-08-10T23:36:51.119Z,18.12
2023-08-10T23:39:18.514Z,18.12
2023-08-10T23:41:45.923Z,18.13
2023-08-10T23:44:16.523Z,18.13
2023-08-10T23:46:43.841Z,18.13
2023-08-10T23:49:12.562Z,18.13
2023-08-10T23:51:40.702Z,18.12
2023-08-10T23:54:08.084Z,18.12
2023-08-10T23:56:36.340Z,18.11
2023-08-10T23:59:03.822Z,18.09
